sensor_id;sensor_type;location;lat;lon;timestamp;pressure;altitude;pressure_sealevel;temperature;humidity
50430;BME280;36359;41.556;-8.418;2023-05-31T00:02:06;100242.72;;;18.64;100.00
50430;BME280;36359;41.556;-8.418;2023-05-31T00:04:31;100240.00;;;18.71;100.00
50430;BME280;36359;41.556;-8.418;2023-05-31T00:06:57;100257.34;;;18.71;100.00
50430;BME280;36359;41.556;-8.418;2023-05-31T00:09:23;100256.50;;;18.71;100.00
50430;BME280;36359;41.556;-8.418;2023-05-31T00:11:48;100248.19;;;18.64;100.00
50430;BME280;36359;41.556;-8.418;2023-05-31T00:14:14;100249.47;;;18.61;100.00
50430;BME280;36359;41.556;-8.418;2023-05-31T00:16:39;100248.19;;;18.64;100.00
50430;BME280;36359;41.556;-8.418;2023-05-31T00:19:05;100244.16;;;18.53;100.00
50430;BME280;36359;41.556;-8.418;2023-05-31T00:21:30;100244.34;;;18.52;100.00
50430;BME280;36359;41.556;-8.418;2023-05-31T00:23:57;100242.25;;;18.54;100.00
50430;BME280;36359;41.556;-8.418;2023-05-31T00:26:22;100241.19;;;18.55;100.00
50430;BME280;36359;41.556;-8.418;2023-05-31T00:28:48;100242.72;;;18.64;100.00
50430;BME280;36359;41.556;-8.418;2023-05-31T00:31:14;100240.53;;;18.53;100.00
50430;BME280;36359;41.556;-8.418;2023-05-31T00:33:39;100240.91;;;18.36;100.00
50430;BME280;36359;41.556;-8.418;2023-05-31T00:36:05;100242.97;;;18.34;100.00
50430;BME280;36359;41.556;-8.418;2023-05-31T00:38:30;100244.91;;;18.41;100.00
50430;BME280;36359;41.556;-8.418;2023-05-31T00:40:56;100249.56;;;18.40;100.00
50430;BME280;36359;41.556;-8.418;2023-05-31T00:43:22;100237.97;;;18.45;100.00
50430;BME280;36359;41.556;-8.418;2023-05-31T00:45:49;100234.97;;;18.33;100.00
50430;BME280;36359;41.556;-8.418;2023-05-31T00:48:15;100234.03;;;18.19;100.00
50430;BME280;36359;41.556;-8.418;2023-05-31T00:50:40;100235.94;;;18.19;100.00
50430;BME280;36359;41.556;-8.418;2023-05-31T00:53:07;100230.72;;;18.30;100.00
50430;BME280;36359;41.556;-8.418;2023-05-31T00:55:32;100223.13;;;18.32;100.00
50430;BME280;36359;41.556;-8.418;2023-05-31T00:57:58;100237.94;;;18.38;100.00
50430;BME280;36359;41.556;-8.418;2023-05-31T01:00:24;100232.25;;;18.39;100.00
50430;BME280;36359;41.556;-8.418;2023-05-31T01:02:50;100237.09;;;18.37;100.00
50430;BME280;36359;41.556;-8.418;2023-05-31T01:05:17;100234.56;;;18.36;100.00
50430;BME280;36359;41.556;-8.418;2023-05-31T01:07:43;100244.63;;;18.29;100.00
50430;BME280;36359;41.556;-8.418;2023-05-31T01:10:10;100230.28;;;18.27;100.00
50430;BME280;36359;41.556;-8.418;2023-05-31T01:17:51;100231.59;;;18.37;100.00
50430;BME280;36359;41.556;-8.418;2023-05-31T01:20:24;100236.47;;;18.35;100.00
50430;BME280;36359;41.556;-8.418;2023-05-31T01:28:35;100231.19;;;18.41;100.00
50430;BME280;36359;41.556;-8.418;2023-05-31T01:31:02;100234.91;;;18.26;100.00
50430;BME280;36359;41.556;-8.418;2023-05-31T01:33:29;100227.44;;;18.48;100.00
50430;BME280;36359;41.556;-8.418;2023-05-31T01:35:56;100224.88;;;18.47;100.00
50430;BME280;36359;41.556;-8.418;2023-05-31T01:38:22;100221.03;;;18.41;100.00
50430;BME280;36359;41.556;-8.418;2023-05-31T01:40:47;100225.47;;;18.35;100.00
50430;BME280;36359;41.556;-8.418;2023-05-31T01:43:13;100224.31;;;18.23;100.00
50430;BME280;36359;41.556;-8.418;2023-05-31T01:45:39;100220.06;;;18.14;100.00
50430;BME280;36359;41.556;-8.418;2023-05-31T01:48:06;100219.47;;;17.90;100.00
50430;BME280;36359;41.556;-8.418;2023-05-31T01:53:02;100223.75;;;18.00;100.00
50430;BME280;36359;41.556;-8.418;2023-05-31T01:55:32;100219.91;;;17.94;100.00
50430;BME280;36359;41.556;-8.418;2023-05-31T01:57:57;100225.03;;;17.97;100.00
50430;BME280;36359;41.556;-8.418;2023-05-31T02:00:24;100221.66;;;18.02;100.00
50430;BME280;36359;41.556;-8.418;2023-05-31T02:02:51;100229.53;;;18.11;100.00
50430;BME280;36359;41.556;-8.418;2023-05-31T02:05:17;100235.66;;;18.07;100.00
50430;BME280;36359;41.556;-8.418;2023-05-31T02:07:44;100224.63;;;18.00;100.00
50430;BME280;36359;41.556;-8.418;2023-05-31T02:10:10;100223.72;;;17.93;100.00
50430;BME280;36359;41.556;-8.418;2023-05-31T02:12:37;100229.06;;;18.01;100.00
50430;BME280;36359;41.556;-8.418;2023-05-31T02:15:04;100221.63;;;17.95;100.00
50430;BME280;36359;41.556;-8.418;2023-05-31T02:17:30;100222.72;;;18.01;100.00
50430;BME280;36359;41.556;-8.418;2023-05-31T02:19:58;100225.47;;;18.01;100.00
50430;BME280;36359;41.556;-8.418;2023-05-31T02:22:24;100224.66;;;18.07;100.00
50430;BME280;36359;41.556;-8.418;2023-05-31T02:24:50;100218.75;;;18.10;100.00
50430;BME280;36359;41.556;-8.418;2023-05-31T02:27:16;100215.88;;;18.18;100.00
50430;BME280;36359;41.556;-8.418;2023-05-31T02:29:44;100214.22;;;18.24;100.00
50430;BME280;36359;41.556;-8.418;2023-05-31T02:32:10;100211.25;;;18.25;100.00
50430;BME280;36359;41.556;-8.418;2023-05-31T02:34:36;100211.25;;;18.25;100.00
50430;BME280;36359;41.556;-8.418;2023-05-31T02:37:01;100208.75;;;18.30;100.00
50430;BME280;36359;41.556;-8.418;2023-05-31T02:39:28;100207.66;;;18.25;100.00
50430;BME280;36359;41.556;-8.418;2023-05-31T02:41:54;100207.84;;;18.23;100.00
50430;BME280;36359;41.556;-8.418;2023-05-31T02:44:22;100201.50;;;18.23;100.00
50430;BME280;36359;41.556;-8.418;2023-05-31T02:46:48;100208.22;;;18.13;100.00
50430;BME280;36359;41.556;-8.418;2023-05-31T02:49:14;100205.63;;;18.05;100.00
50430;BME280;36359;41.556;-8.418;2023-05-31T02:51:40;100206.00;;;17.96;100.00
50430;BME280;36359;41.556;-8.418;2023-05-31T02:54:12;100221.22;;;17.98;100.00
50430;BME280;36359;41.556;-8.418;2023-05-31T02:56:37;100219.72;;;17.96;100.00
50430;BME280;36359;41.556;-8.418;2023-05-31T02:59:15;100211.06;;;18.27;100.00
50430;BME280;36359;41.556;-8.418;2023-05-31T03:01:46;100219.25;;;18.20;100.00
50430;BME280;36359;41.556;-8.418;2023-05-31T03:04:21;100216.47;;;18.13;100.00
50430;BME280;36359;41.556;-8.418;2023-05-31T03:06:47;100215.81;;;18.11;100.00
50430;BME280;36359;41.556;-8.418;2023-05-31T03:09:14;100208.84;;;18.09;100.00
50430;BME280;36359;41.556;-8.418;2023-05-31T03:11:45;100209.47;;;18.11;100.00
50430;BME280;36359;41.556;-8.418;2023-05-31T03:14:11;100205.09;;;18.23;100.00
50430;BME280;36359;41.556;-8.418;2023-05-31T03:16:45;100208.91;;;18.22;100.00
50430;BME280;36359;41.556;-8.418;2023-05-31T03:19:11;100208.44;;;18.12;100.00
50430;BME280;36359;41.556;-8.418;2023-05-31T03:21:42;100204.88;;;18.18;100.00
50430;BME280;36359;41.556;-8.418;2023-05-31T03:24:08;100204.81;;;18.11;100.00
50430;BME280;36359;41.556;-8.418;2023-05-31T03:26:35;100208.75;;;17.96;100.00
50430;BME280;36359;41.556;-8.418;2023-05-31T03:29:01;100213.03;;;17.77;100.00
50430;BME280;36359;41.556;-8.418;2023-05-31T03:31:27;100216.81;;;17.76;100.00
50430;BME280;36359;41.556;-8.418;2023-05-31T03:33:55;100210.69;;;17.74;100.00
50430;BME280;36359;41.556;-8.418;2023-05-31T03:36:21;100217.56;;;17.91;100.00
50430;BME280;36359;41.556;-8.418;2023-05-31T03:38:47;100220.38;;;17.98;100.00
50430;BME280;36359;41.556;-8.418;2023-05-31T03:41:14;100220.59;;;18.03;100.00
50430;BME280;36359;41.556;-8.418;2023-05-31T03:43:39;100212.88;;;17.85;100.00
50430;BME280;36359;41.556;-8.418;2023-05-31T03:46:05;100211.84;;;17.86;100.00
50430;BME280;36359;41.556;-8.418;2023-05-31T03:48:31;100214.38;;;17.87;100.00
50430;BME280;36359;41.556;-8.418;2023-05-31T03:50:56;100209.69;;;17.81;100.00
50430;BME280;36359;41.556;-8.418;2023-05-31T03:53:22;100211.38;;;17.82;100.00
50430;BME280;36359;41.556;-8.418;2023-05-31T03:55:49;100208.44;;;17.84;100.00
50430;BME280;36359;41.556;-8.418;2023-05-31T03:58:16;100204.03;;;17.83;100.00
50430;BME280;36359;41.556;-8.418;2023-05-31T04:00:43;100205.53;;;17.85;100.00
50430;BME280;36359;41.556;-8.418;2023-05-31T04:03:09;100203.00;;;17.90;100.00
50430;BME280;36359;41.556;-8.418;2023-05-31T04:05:40;100209.75;;;17.88;100.00
50430;BME280;36359;41.556;-8.418;2023-05-31T04:08:07;100205.75;;;17.90;100.00
50430;BME280;36359;41.556;-8.418;2023-05-31T04:10:33;100202.13;;;17.83;100.00
50430;BME280;36359;41.556;-8.418;2023-05-31T04:12:58;100201.19;;;17.76;100.00
50430;BME280;36359;41.556;-8.418;2023-05-31T04:15:24;100200.41;;;17.82;100.00
50430;BME280;36359;41.556;-8.418;2023-05-31T04:17:56;100205.28;;;17.80;100.00
50430;BME280;36359;41.556;-8.418;2023-05-31T04:20:22;100199.78;;;17.80;100.00
50430;BME280;36359;41.556;-8.418;2023-05-31T04:22:49;100202.78;;;17.64;100.00
50430;BME280;36359;41.556;-8.418;2023-05-31T04:25:15;100193.91;;;17.62;100.00
50430;BME280;36359;41.556;-8.418;2023-05-31T04:27:43;100201.94;;;17.63;100.00
50430;BME280;36359;41.556;-8.418;2023-05-31T04:30:08;100206.19;;;17.66;100.00
50430;BME280;36359;41.556;-8.418;2023-05-31T04:32:34;100200.72;;;17.73;100.00
50430;BME280;36359;41.556;-8.418;2023-05-31T04:35:00;100197.88;;;17.81;100.00
50430;BME280;36359;41.556;-8.418;2023-05-31T04:37:30;100204.22;;;17.81;100.00
50430;BME280;36359;41.556;-8.418;2023-05-31T04:39:58;100202.56;;;17.87;100.00
50430;BME280;36359;41.556;-8.418;2023-05-31T04:42:25;100200.03;;;17.85;100.00
50430;BME280;36359;41.556;-8.418;2023-05-31T04:44:52;100204.13;;;17.75;100.00
50430;BME280;36359;41.556;-8.418;2023-05-31T04:47:26;100216.44;;;17.79;100.00
50430;BME280;36359;41.556;-8.418;2023-05-31T04:49:54;100220.28;;;17.84;100.00
50430;BME280;36359;41.556;-8.418;2023-05-31T04:52:24;100215.97;;;17.75;100.00
50430;BME280;36359;41.556;-8.418;2023-05-31T04:54:52;100204.97;;;17.75;100.00
50430;BME280;36359;41.556;-8.418;2023-05-31T04:57:18;100217.28;;;17.79;100.00
50430;BME280;36359;41.556;-8.418;2023-05-31T04:59:45;100210.63;;;17.88;100.00
50430;BME280;36359;41.556;-8.418;2023-05-31T05:02:10;100212.44;;;17.81;100.00
50430;BME280;36359;41.556;-8.418;2023-05-31T05:04:36;100215.63;;;17.85;100.00
50430;BME280;36359;41.556;-8.418;2023-05-31T05:07:02;100214.28;;;17.74;100.00
50430;BME280;36359;41.556;-8.418;2023-05-31T05:09:28;100219.09;;;17.72;100.00
50430;BME280;36359;41.556;-8.418;2023-05-31T05:11:54;100212.31;;;17.68;100.00
50430;BME280;36359;41.556;-8.418;2023-05-31T05:14:21;100223.22;;;17.61;100.00
50430;BME280;36359;41.556;-8.418;2023-05-31T05:16:47;100228.97;;;17.66;100.00
50430;BME280;36359;41.556;-8.418;2023-05-31T05:19:13;100224.81;;;17.49;100.00
50430;BME280;36359;41.556;-8.418;2023-05-31T05:21:40;100225.78;;;17.63;100.00
50430;BME280;36359;41.556;-8.418;2023-05-31T05:24:08;100232.56;;;17.67;100.00
50430;BME280;36359;41.556;-8.418;2023-05-31T05:26:35;100226.63;;;17.63;100.00
50430;BME280;36359;41.556;-8.418;2023-05-31T05:29:00;100218.50;;;17.77;100.00
50430;BME280;36359;41.556;-8.418;2023-05-31T05:31:26;100216.09;;;17.88;100.00
50430;BME280;36359;41.556;-8.418;2023-05-31T05:33:54;100215.78;;;18.05;100.00
50430;BME280;36359;41.556;-8.418;2023-05-31T05:36:20;100218.75;;;18.10;100.00
50430;BME280;36359;41.556;-8.418;2023-05-31T05:38:50;100214.22;;;17.96;100.00
50430;BME280;36359;41.556;-8.418;2023-05-31T05:41:16;100213.97;;;17.90;100.00
50430;BME280;36359;41.556;-8.418;2023-05-31T05:43:42;100214.75;;;17.78;100.00
50430;BME280;36359;41.556;-8.418;2023-05-31T05:46:11;100208.53;;;17.69;100.00
50430;BME280;36359;41.556;-8.418;2023-05-31T05:48:37;100210.81;;;17.65;100.00
50430;BME280;36359;41.556;-8.418;2023-05-31T05:51:03;100218.03;;;17.73;100.00
50430;BME280;36359;41.556;-8.418;2023-05-31T05:53:29;100222.44;;;17.67;100.00
50430;BME280;36359;41.556;-8.418;2023-05-31T05:55:56;100215.47;;;17.65;100.00
50430;BME280;36359;41.556;-8.418;2023-05-31T05:58:26;100225.00;;;17.69;100.00
50430;BME280;36359;41.556;-8.418;2023-05-31T06:01:10;100224.78;;;17.70;100.00
50430;BME280;36359;41.556;-8.418;2023-05-31T06:03:38;100224.84;;;17.77;100.00
50430;BME280;36359;41.556;-8.418;2023-05-31T06:06:05;100220.53;;;17.89;100.00
50430;BME280;36359;41.556;-8.418;2023-05-31T06:08:31;100221.91;;;18.07;100.00
50430;BME280;36359;41.556;-8.418;2023-05-31T06:10:56;100219.25;;;18.20;100.00
50430;BME280;36359;41.556;-8.418;2023-05-31T06:13:22;100220.13;;;18.21;100.00
50430;BME280;36359;41.556;-8.418;2023-05-31T06:15:48;100208.19;;;18.07;100.00
50430;BME280;36359;41.556;-8.418;2023-05-31T06:18:13;100217.84;;;18.03;100.00
50430;BME280;36359;41.556;-8.418;2023-05-31T06:20:40;100222.78;;;18.14;100.00
50430;BME280;36359;41.556;-8.418;2023-05-31T06:23:07;100219.72;;;18.24;100.00
50430;BME280;36359;41.556;-8.418;2023-05-31T06:25:32;100225.22;;;18.30;100.00
50430;BME280;36359;41.556;-8.418;2023-05-31T06:28:00;100228.66;;;18.39;100.00
50430;BME280;36359;41.556;-8.418;2023-05-31T06:30:26;100222.31;;;18.38;100.00
50430;BME280;36359;41.556;-8.418;2023-05-31T06:32:52;100229.34;;;18.54;100.00
50430;BME280;36359;41.556;-8.418;2023-05-31T06:35:23;100224.53;;;18.63;100.00
50430;BME280;36359;41.556;-8.418;2023-05-31T06:37:48;100229.03;;;18.71;100.00
50430;BME280;36359;41.556;-8.418;2023-05-31T06:40:17;100222.09;;;18.40;100.00
50430;BME280;36359;41.556;-8.418;2023-05-31T06:42:43;100224.66;;;18.42;100.00
50430;BME280;36359;41.556;-8.418;2023-05-31T06:45:34;100215.06;;;18.24;100.00
50430;BME280;36359;41.556;-8.418;2023-05-31T06:48:26;100220.03;;;18.49;100.00
50430;BME280;36359;41.556;-8.418;2023-05-31T06:51:23;100218.97;;;18.50;100.00
50430;BME280;36359;41.556;-8.418;2023-05-31T06:54:09;100218.38;;;18.61;100.00
50430;BME280;36359;41.556;-8.418;2023-05-31T06:56:36;100213.13;;;18.59;100.00
50430;BME280;36359;41.556;-8.418;2023-05-31T06:59:02;100208.34;;;18.81;100.00
50430;BME280;36359;41.556;-8.418;2023-05-31T07:01:28;100209.91;;;19.17;99.91
50430;BME280;36359;41.556;-8.418;2023-05-31T07:03:54;100214.78;;;19.22;100.00
50430;BME280;36359;41.556;-8.418;2023-05-31T07:06:20;100216.91;;;19.13;100.00
50430;BME280;36359;41.556;-8.418;2023-05-31T07:08:47;100217.75;;;19.20;100.00
50430;BME280;36359;41.556;-8.418;2023-05-31T07:11:31;100221.97;;;19.23;100.00
50430;BME280;36359;41.556;-8.418;2023-05-31T07:14:00;100223.66;;;19.17;100.00
50430;BME280;36359;41.556;-8.418;2023-05-31T07:16:31;100227.47;;;19.16;100.00
50430;BME280;36359;41.556;-8.418;2023-05-31T07:18:58;100221.97;;;19.16;100.00
50430;BME280;36359;41.556;-8.418;2023-05-31T07:21:26;100219.22;;;19.16;100.00
50430;BME280;36359;41.556;-8.418;2023-05-31T07:24:13;100222.22;;;19.28;100.00
50430;BME280;36359;41.556;-8.418;2023-05-31T07:26:43;100222.66;;;19.51;100.00
50430;BME280;36359;41.556;-8.418;2023-05-31T07:29:14;100226.47;;;20.10;93.85
50430;BME280;36359;41.556;-8.418;2023-05-31T07:31:40;100225.06;;;20.66;89.29
50430;BME280;36359;41.556;-8.418;2023-05-31T07:34:06;100236.44;;;20.83;88.60
50430;BME280;36359;41.556;-8.418;2023-05-31T07:36:35;100228.22;;;20.70;89.94
50430;BME280;36359;41.556;-8.418;2023-05-31T07:39:06;100226.59;;;20.94;88.06
50430;BME280;36359;41.556;-8.418;2023-05-31T07:41:32;100225.69;;;20.61;90.39
50430;BME280;36359;41.556;-8.418;2023-05-31T07:43:57;100221.16;;;20.02;92.19
50430;BME280;36359;41.556;-8.418;2023-05-31T07:46:26;100222.28;;;19.74;94.91
50430;BME280;36359;41.556;-8.418;2023-05-31T07:48:52;100220.56;;;19.73;96.36
50430;BME280;36359;41.556;-8.418;2023-05-31T07:51:19;100221.59;;;20.06;95.14
50430;BME280;36359;41.556;-8.418;2023-05-31T07:53:45;100219.28;;;19.96;96.80
50430;BME280;36359;41.556;-8.418;2023-05-31T07:56:12;100215.66;;;20.02;97.80
50430;BME280;36359;41.556;-8.418;2023-05-31T07:58:38;100205.88;;;20.19;95.51
50430;BME280;36359;41.556;-8.418;2023-05-31T08:01:03;100214.41;;;19.98;96.96
50430;BME280;36359;41.556;-8.418;2023-05-31T08:03:29;100221.84;;;19.71;97.95
50430;BME280;36359;41.556;-8.418;2023-05-31T08:05:56;100222.69;;;19.71;98.69
50430;BME280;36359;41.556;-8.418;2023-05-31T08:08:22;100216.09;;;19.52;99.89
50430;BME280;36359;41.556;-8.418;2023-05-31T08:10:48;100212.28;;;19.40;100.00
50430;BME280;36359;41.556;-8.418;2023-05-31T08:13:13;100211.63;;;19.58;100.00
50430;BME280;36359;41.556;-8.418;2023-05-31T08:15:39;100207.88;;;19.86;99.32
50430;BME280;36359;41.556;-8.418;2023-05-31T08:18:05;100210.78;;;20.11;97.80
50430;BME280;36359;41.556;-8.418;2023-05-31T08:20:33;100210.28;;;20.34;96.05
50430;BME280;36359;41.556;-8.418;2023-05-31T08:25:32;100207.94;;;20.37;92.63
50430;BME280;36359;41.556;-8.418;2023-05-31T08:27:58;100210.75;;;20.24;95.26
50430;BME280;36359;41.556;-8.418;2023-05-31T08:30:23;100212.91;;;20.02;97.67
50430;BME280;36359;41.556;-8.418;2023-05-31T08:32:49;100209.00;;;20.56;95.39
50430;BME280;36359;41.556;-8.418;2023-05-31T08:35:17;100205.25;;;20.82;93.25
50430;BME280;36359;41.556;-8.418;2023-05-31T08:37:58;100199.56;;;20.77;92.99
50430;BME280;36359;41.556;-8.418;2023-05-31T08:40:23;100201.09;;;20.67;93.83
50430;BME280;36359;41.556;-8.418;2023-05-31T08:45:18;100206.47;;;20.35;93.71
50430;BME280;36359;41.556;-8.418;2023-05-31T08:47:45;100206.41;;;20.61;94.30
50430;BME280;36359;41.556;-8.418;2023-05-31T08:50:14;100202.16;;;20.66;93.66
50430;BME280;36359;41.556;-8.418;2023-05-31T08:52:40;100198.28;;;20.80;92.01
50430;BME280;36359;41.556;-8.418;2023-05-31T08:55:06;100191.97;;;21.04;92.73
50430;BME280;36359;41.556;-8.418;2023-05-31T08:57:33;100191.31;;;21.41;90.22
50430;BME280;36359;41.556;-8.418;2023-05-31T09:00:01;100193.59;;;21.50;89.93
50430;BME280;36359;41.556;-8.418;2023-05-31T09:02:28;100184.28;;;21.70;86.77
50430;BME280;36359;41.556;-8.418;2023-05-31T09:04:54;100180.09;;;21.36;88.59
50430;BME280;36359;41.556;-8.418;2023-05-31T09:07:21;100184.34;;;21.00;88.09
50430;BME280;36359;41.556;-8.418;2023-05-31T09:09:47;100181.78;;;21.62;88.94
50430;BME280;36359;41.556;-8.418;2023-05-31T09:12:14;100185.66;;;21.79;87.50
50430;BME280;36359;41.556;-8.418;2023-05-31T09:15:00;100179.94;;;21.81;87.24
50430;BME280;36359;41.556;-8.418;2023-05-31T09:17:48;100179.84;;;22.12;86.34
50430;BME280;36359;41.556;-8.418;2023-05-31T09:20:19;100180.78;;;22.25;83.86
50430;BME280;36359;41.556;-8.418;2023-05-31T09:22:48;100179.94;;;22.24;83.38
50430;BME280;36359;41.556;-8.418;2023-05-31T09:25:24;100183.81;;;22.16;84.11
50430;BME280;36359;41.556;-8.418;2023-05-31T09:27:53;100176.81;;;22.14;83.13
50430;BME280;36359;41.556;-8.418;2023-05-31T09:30:23;100178.97;;;22.12;83.62
50430;BME280;36359;41.556;-8.418;2023-05-31T09:32:52;100173.59;;;21.98;83.60
50430;BME280;36359;41.556;-8.418;2023-05-31T09:35:19;100178.97;;;22.12;81.96
50430;BME280;36359;41.556;-8.418;2023-05-31T09:37:50;100185.47;;;21.99;81.95
50430;BME280;36359;41.556;-8.418;2023-05-31T09:40:23;100177.91;;;22.13;83.08
50430;BME280;36359;41.556;-8.418;2023-05-31T09:42:50;100174.50;;;21.92;83.25
50430;BME280;36359;41.556;-8.418;2023-05-31T09:45:16;100171.56;;;22.31;82.83
50430;BME280;36359;41.556;-8.418;2023-05-31T09:47:42;100173.31;;;22.07;84.18
50430;BME280;36359;41.556;-8.418;2023-05-31T09:50:11;100169.09;;;22.22;84.25
50430;BME280;36359;41.556;-8.418;2023-05-31T09:52:37;100169.66;;;22.31;83.65
50430;BME280;36359;41.556;-8.418;2023-05-31T09:55:10;100162.78;;;22.52;82.58
50430;BME280;36359;41.556;-8.418;2023-05-31T09:57:37;100166.97;;;22.73;81.30
50430;BME280;36359;41.556;-8.418;2023-05-31T10:00:06;100170.19;;;22.88;80.78
50430;BME280;36359;41.556;-8.418;2023-05-31T10:02:45;100168.31;;;22.82;78.42
50430;BME280;36359;41.556;-8.418;2023-05-31T10:05:12;100161.13;;;22.81;80.44
50430;BME280;36359;41.556;-8.418;2023-05-31T10:07:38;100165.41;;;22.96;78.15
50430;BME280;36359;41.556;-8.418;2023-05-31T10:10:04;100157.38;;;23.06;78.83
50430;BME280;36359;41.556;-8.418;2023-05-31T10:12:31;100154.03;;;23.04;77.14
50430;BME280;36359;41.556;-8.418;2023-05-31T10:15:00;100152.75;;;23.18;75.84
50430;BME280;36359;41.556;-8.418;2023-05-31T10:17:26;100153.25;;;23.39;75.51
50430;BME280;36359;41.556;-8.418;2023-05-31T10:19:59;100157.56;;;23.23;77.29
50430;BME280;36359;41.556;-8.418;2023-05-31T10:22:29;100156.38;;;23.30;77.40
50430;BME280;36359;41.556;-8.418;2023-05-31T10:25:00;100157.47;;;23.53;74.81
50430;BME280;36359;41.556;-8.418;2023-05-31T10:27:29;100145.94;;;23.79;72.73
50430;BME280;36359;41.556;-8.418;2023-05-31T10:29:58;100146.31;;;23.60;73.16
50430;BME280;36359;41.556;-8.418;2023-05-31T10:32:34;100154.50;;;23.90;71.13
50430;BME280;36359;41.556;-8.418;2023-05-31T10:35:00;100151.84;;;23.60;73.51
50430;BME280;36359;41.556;-8.418;2023-05-31T10:37:26;100147.78;;;23.20;73.29
50430;BME280;36359;41.556;-8.418;2023-05-31T10:39:58;100147.91;;;23.13;76.53
50430;BME280;36359;41.556;-8.418;2023-05-31T10:47:51;100145.81;;;24.21;66.17
50430;BME280;36359;41.556;-8.418;2023-05-31T10:50:18;100139.44;;;24.09;67.83
50430;BME280;36359;41.556;-8.418;2023-05-31T10:52:44;100140.88;;;23.88;71.87
50430;BME280;36359;41.556;-8.418;2023-05-31T10:57:42;100145.41;;;23.12;75.06
50430;BME280;36359;41.556;-8.418;2023-05-31T11:00:08;100133.81;;;23.03;76.22
50430;BME280;36359;41.556;-8.418;2023-05-31T11:02:57;100133.84;;;23.15;73.51
50430;BME280;36359;41.556;-8.418;2023-05-31T11:05:24;100129.31;;;23.32;74.18
50430;BME280;36359;41.556;-8.418;2023-05-31T11:07:51;100127.88;;;23.65;70.82
50430;BME280;36359;41.556;-8.418;2023-05-31T11:10:24;100129.75;;;23.29;73.48
50430;BME280;36359;41.556;-8.418;2023-05-31T11:12:50;100122.25;;;23.72;70.12
50430;BME280;36359;41.556;-8.418;2023-05-31T11:15:16;100121.84;;;23.68;70.62
50430;BME280;36359;41.556;-8.418;2023-05-31T11:18:15;100121.84;;;23.68;72.60
50430;BME280;36359;41.556;-8.418;2023-05-31T11:20:34;100126.56;;;23.79;69.25
50430;BME280;36359;41.556;-8.418;2023-05-31T11:28:30;100112.16;;;24.30;69.24
50430;BME280;36359;41.556;-8.418;2023-05-31T11:30:56;100117.75;;;24.06;71.46
50430;BME280;36359;41.556;-8.418;2023-05-31T11:33:22;100111.72;;;24.09;71.01
50430;BME280;36359;41.556;-8.418;2023-05-31T11:35:48;100121.00;;;23.68;67.13
50430;BME280;36359;41.556;-8.418;2023-05-31T11:38:14;100109.94;;;23.32;69.26
50430;BME280;36359;41.556;-8.418;2023-05-31T11:40:40;100113.16;;;23.53;74.22
50430;BME280;36359;41.556;-8.418;2023-05-31T11:43:07;100115.22;;;23.46;74.66
50430;BME280;36359;41.556;-8.418;2023-05-31T11:45:33;100117.38;;;23.67;74.10
50430;BME280;36359;41.556;-8.418;2023-05-31T11:48:09;100101.88;;;23.90;69.87
50430;BME280;36359;41.556;-8.418;2023-05-31T11:50:36;100100.25;;;24.17;67.91
50430;BME280;36359;41.556;-8.418;2023-05-31T11:53:03;100100.91;;;24.48;69.23
50430;BME280;36359;41.556;-8.418;2023-05-31T11:55:32;100096.25;;;24.65;66.36
50430;BME280;36359;41.556;-8.418;2023-05-31T11:57:58;100091.59;;;24.54;69.41
50430;BME280;36359;41.556;-8.418;2023-05-31T12:00:24;100099.50;;;25.08;66.78
50430;BME280;36359;41.556;-8.418;2023-05-31T12:02:54;100094.94;;;24.28;70.07
50430;BME280;36359;41.556;-8.418;2023-05-31T12:05:21;100095.66;;;24.23;70.71
50430;BME280;36359;41.556;-8.418;2023-05-31T12:07:47;100091.28;;;23.87;72.36
50430;BME280;36359;41.556;-8.418;2023-05-31T12:10:17;100085.25;;;23.90;72.50
50430;BME280;36359;41.556;-8.418;2023-05-31T12:12:43;100083.69;;;23.82;71.96
50430;BME280;36359;41.556;-8.418;2023-05-31T12:15:11;100080.69;;;23.84;71.96
50430;BME280;36359;41.556;-8.418;2023-05-31T12:17:38;100085.47;;;23.53;72.58
50430;BME280;36359;41.556;-8.418;2023-05-31T12:20:04;100079.72;;;23.43;74.19
50430;BME280;36359;41.556;-8.418;2023-05-31T12:22:33;100078.03;;;23.42;74.30
50430;BME280;36359;41.556;-8.418;2023-05-31T12:24:59;100074.19;;;23.43;73.88
50430;BME280;36359;41.556;-8.418;2023-05-31T12:27:25;100076.09;;;23.42;73.72
50430;BME280;36359;41.556;-8.418;2023-05-31T12:29:56;100079.72;;;23.43;74.14
50430;BME280;36359;41.556;-8.418;2023-05-31T12:32:22;100072.97;;;23.39;73.99
50430;BME280;36359;41.556;-8.418;2023-05-31T12:34:52;100074.03;;;23.26;73.82
50430;BME280;36359;41.556;-8.418;2023-05-31T12:37:18;100071.88;;;23.28;73.97
50430;BME280;36359;41.556;-8.418;2023-05-31T12:39:44;100070.69;;;23.35;73.49
50430;BME280;36359;41.556;-8.418;2023-05-31T12:42:10;100072.50;;;23.42;72.71
50430;BME280;36359;41.556;-8.418;2023-05-31T12:44:36;100059.25;;;23.44;72.37
50430;BME280;36359;41.556;-8.418;2023-05-31T12:47:06;100060.19;;;23.85;71.15
50430;BME280;36359;41.556;-8.418;2023-05-31T12:49:32;100055.25;;;23.87;70.21
50430;BME280;36359;41.556;-8.418;2023-05-31T12:51:58;100054.44;;;23.86;71.36
50430;BME280;36359;41.556;-8.418;2023-05-31T12:54:25;100053.69;;;23.67;70.58
50430;BME280;36359;41.556;-8.418;2023-05-31T12:56:51;100041.41;;;23.63;71.69
50430;BME280;36359;41.556;-8.418;2023-05-31T12:59:16;100042.75;;;23.72;71.23
50430;BME280;36359;41.556;-8.418;2023-05-31T13:01:42;100038.03;;;23.61;72.27
50430;BME280;36359;41.556;-8.418;2023-05-31T13:04:09;100035.63;;;23.76;71.46
50430;BME280;36359;41.556;-8.418;2023-05-31T13:06:34;100027.38;;;24.05;70.28
50430;BME280;36359;41.556;-8.418;2023-05-31T13:09:01;100035.22;;;24.37;68.43
50430;BME280;36359;41.556;-8.418;2023-05-31T13:11:39;100032.47;;;24.65;67.38